createdAt,value
2023-02-11T00:01:35.007Z,101797.31
2023-02-11T00:06:01.407Z,101795.94
2023-02-11T00:10:17.918Z,101789.37
2023-02-11T00:14:34.146Z,101782.34
2023-02-11T00:18:53.247Z,101783.59
2023-02-11T00:23:09.974Z,101778.06
2023-02-11T00:27:26.289Z,101786.28
2023-02-11T00:31:42.791Z,101783.69
2023-02-11T00:35:59.151Z,101803.63
2023-02-11T00:40:16.345Z,101787.88
2023-02-11T00:44:32.689Z,101778.94
2023-02-11T00:48:49.344Z,101782.97
2023-02-11T00:53:05.694Z,101778.41
2023-02-11T00:57:22.041Z,101773.94
2023-02-11T01:01:38.478Z,101762.56
2023-02-11T01:05:55.005Z,101756.56
2023-02-11T01:10:11.775Z,101749.13
2023-02-11T01:14:28.048Z,101746.41
2023-02-11T01:18:44.681Z,101742.94
2023-02-11T01:23:01.073Z,101744.22
2023-02-11T01:27:17.542Z,101742.88
2023-02-11T01:31:33.972Z,101746.75
2023-02-11T01:35:51.028Z,101745.47
2023-02-11T01:40:11.557Z,101737.91
2023-02-11T01:44:34.240Z,101737.06
2023-02-11T01:49:18.398Z,101734.44
2023-02-11T01:53:54.015Z,101729.16
2023-02-11T01:58:10.399Z,101735.37
2023-02-11T02:02:57.217Z,101734.94
2023-02-11T02:07:20.696Z,101727.53
2023-02-11T02:11:37.489Z,101728.37
2023-02-11T02:15:56.048Z,101732.34
2023-02-11T02:20:50.652Z,101725.13
2023-02-11T02:25:40.136Z,101732.25
2023-02-11T02:30:08.808Z,101718.94
2023-02-11T02:34:40.361Z,101720.47
2023-02-11T02:39:04.497Z,101719.09
2023-02-11T02:43:21.872Z,101722.06
2023-02-11T02:47:38.284Z,101716.78
2023-02-11T02:52:07.312Z,101714.13
2023-02-11T02:56:45.701Z,101705.47
2023-02-11T03:01:20.813Z,101697.25
2023-02-11T03:06:08.395Z,101690.97
2023-02-11T03:10:33.412Z,101690.87
2023-02-11T03:14:52.214Z,101681.03
2023-02-11T03:19:37.825Z,101675.19
2023-02-11T03:24:02.956Z,101673.03
2023-02-11T03:28:34.713Z,101667.03
2023-02-11T03:33:03.847Z,101658.16
2023-02-11T03:37:22.536Z,101655.75
2023-02-11T03:41:41.246Z,101641.84
2023-02-11T03:45:58.957Z,101645.28
2023-02-11T03:50:16.814Z,101634.09
2023-02-11T03:54:33.205Z,101630.37
2023-02-11T03:58:49.645Z,101620.16
2023-02-11T04:03:06.661Z,101617.28
2023-02-11T04:07:23.389Z,101617.09
2023-02-11T04:11:39.752Z,101615.31
2023-02-11T04:15:56.021Z,101617.91
2023-02-11T04:20:12.660Z,101606.25
2023-02-11T04:24:29.111Z,101606.81
2023-02-11T04:28:45.364Z,101610.81
2023-02-11T04:33:01.719Z,101604.19
2023-02-11T04:37:17.968Z,101603.75
2023-02-11T04:41:34.365Z,101597.19
2023-02-11T04:45:50.790Z,101600.06
2023-02-11T04:50:07.372Z,101592.31
2023-02-11T04:54:23.684Z,101599.13
2023-02-11T04:58:40.040Z,101604.00
2023-02-11T05:02:56.299Z,101601.66
2023-02-11T05:07:12.700Z,101597.44
2023-02-11T05:11:30.062Z,101599.37
2023-02-11T05:15:46.497Z,101592.22
2023-02-11T05:20:02.776Z,101592.38
2023-02-11T05:24:19.335Z,101586.13
2023-02-11T05:28:35.840Z,101585.50
2023-02-11T05:32:52.420Z,101581.44
2023-02-11T05:37:08.746Z,101597.00
2023-02-11T05:41:25.141Z,101598.59
2023-02-11T05:45:41.435Z,101606.84
2023-02-11T05:49:57.738Z,101603.66
2023-02-11T05:54:14.135Z,101605.22
2023-02-11T05:58:30.711Z,101597.06
2023-02-11T06:02:47.039Z,101578.47
2023-02-11T06:07:03.823Z,101573.09
2023-02-11T06:11:20.528Z,101566.16
2023-02-11T06:15:36.798Z,101567.00
2023-02-11T06:19:53.082Z,101563.84
2023-02-11T06:24:09.356Z,101568.00
2023-02-11T06:28:25.626Z,101561.25
2023-02-11T06:32:45.082Z,101572.66
2023-02-11T06:37:01.919Z,101573.09
2023-02-11T06:41:22.264Z,101564.19
2023-02-11T06:45:38.483Z,101558.44
2023-02-11T06:49:54.800Z,101566.69
2023-02-11T06:54:13.088Z,101570.28
2023-02-11T06:58:29.380Z,101569.16
2023-02-11T07:02:45.611Z,101558.78
2023-02-11T07:07:01.889Z,101564.16
2023-02-11T07:11:24.426Z,101552.78
2023-02-11T07:15:40.726Z,101544.38
2023-02-11T07:19:57.025Z,101553.09
2023-02-11T07:24:14.490Z,101544.53
2023-02-11T07:28:30.933Z,101542.56
2023-02-11T07:32:47.271Z,101526.44
2023-02-11T07:37:03.551Z,101526.78
2023-02-11T07:41:22.099Z,101519.66
2023-02-11T07:45:39.875Z,101524.34
2023-02-11T07:49:56.825Z,101523.81
2023-02-11T07:54:13.110Z,101532.37
2023-02-11T07:58:29.441Z,101536.59
2023-02-11T08:02:45.645Z,101530.75
2023-02-11T08:07:01.883Z,101518.78
2023-02-11T08:11:23.485Z,101506.34
2023-02-11T08:15:39.802Z,101504.84
2023-02-11T08:19:56.195Z,101517.69
2023-02-11T08:24:12.557Z,101504.69
2023-02-11T08:28:28.767Z,101508.22
2023-02-11T08:32:44.964Z,101508.00
2023-02-11T08:37:01.167Z,101510.88
2023-02-11T08:41:17.824Z,101504.37
2023-02-11T08:45:34.098Z,101512.88
2023-02-11T08:49:50.423Z,101506.59
2023-02-11T08:54:09.669Z,101487.69
2023-02-11T08:58:26.016Z,101486.59
2023-02-11T09:02:42.233Z,101487.06
2023-02-11T09:06:58.669Z,101486.91
2023-02-11T09:11:15.303Z,101483.34
2023-02-11T09:15:31.855Z,101478.91
2023-02-11T09:19:48.058Z,101476.47
2023-02-11T09:24:04.623Z,101467.19
2023-02-11T09:28:20.895Z,101476.72
2023-02-11T09:32:37.362Z,101479.50
2023-02-11T09:36:53.734Z,101469.94
2023-02-11T09:41:22.408Z,101476.78
2023-02-11T09:45:38.769Z,101459.53
2023-02-11T09:50:07.668Z,101460.44
2023-02-11T09:54:37.832Z,101471.63
2023-02-11T09:58:56.469Z,101455.91
2023-02-11T10:03:35.615Z,101451.53
2023-02-11T10:08:17.166Z,101452.16
2023-02-11T10:13:00.566Z,101444.56
2023-02-11T10:17:45.165Z,101428.09
2023-02-11T10:22:18.901Z,101421.88
2023-02-11T10:26:36.529Z,101407.94
2023-02-11T10:31:18.208Z,101416.06
2023-02-11T10:35:34.659Z,101419.72
2023-02-11T10:39:50.929Z,101413.59
2023-02-11T10:44:19.758Z,101393.78
2023-02-11T10:48:42.030Z,101390.75
2023-02-11T10:53:16.507Z,101396.53
2023-02-11T10:57:35.760Z,101378.72
2023-02-11T11:01:54.335Z,101381.84
2023-02-11T11:06:10.632Z,101367.19
2023-02-11T11:10:34.386Z,101360.16
2023-02-11T11:14:56.873Z,101370.62
2023-02-11T11:19:15.214Z,101364.59
2023-02-11T11:23:32.065Z,101359.37
2023-02-11T11:27:57.517Z,101355.56
2023-02-11T11:32:32.700Z,101341.59
2023-02-11T11:36:49.858Z,101347.38
2023-02-11T11:41:15.182Z,101341.06
2023-02-11T11:45:31.498Z,101322.50
2023-02-11T11:50:11.297Z,101326.69
2023-02-11T11:54:28.104Z,101314.87
2023-02-11T11:58:44.415Z,101296.72
2023-02-11T12:03:19.288Z,101280.19
2023-02-11T12:07:50.368Z,101257.16
2023-02-11T12:12:32.419Z,101250.19
2023-02-11T12:17:04.074Z,101247.16
2023-02-11T12:21:48.479Z,101240.78
2023-02-11T12:26:24.935Z,101245.97
2023-02-11T12:30:41.190Z,101230.22
2023-02-11T12:35:17.055Z,101223.34
2023-02-11T12:39:51.604Z,101228.03
2023-02-11T12:44:13.276Z,101212.00
2023-02-11T12:48:50.967Z,101203.09
2023-02-11T12:53:21.240Z,101190.59
2023-02-11T12:57:40.489Z,101173.31
2023-02-11T13:01:58.547Z,101172.16
2023-02-11T13:06:37.894Z,101171.34
2023-02-11T13:11:04.229Z,101166.00
2023-02-11T13:15:20.505Z,101154.41
2023-02-11T13:19:44.305Z,101139.72
2023-02-11T13:24:19.108Z,101134.97
2023-02-11T13:28:45.199Z,101141.69
2023-02-11T13:33:01.404Z,101144.19
2023-02-11T13:37:38.622Z,101142.44
2023-02-11T13:42:04.203Z,101140.66
2023-02-11T13:46:20.567Z,101145.13
2023-02-11T13:50:48.027Z,101128.97
2023-02-11T13:55:24.034Z,101125.50
2023-02-11T14:00:00.583Z,101118.34
2023-02-11T14:04:44.925Z,101114.84
2023-02-11T14:09:13.998Z,101124.94
2023-02-11T14:13:32.684Z,101141.63
2023-02-11T14:17:49.062Z,101143.47
2023-02-11T14:22:19.780Z,101151.78
2023-02-11T14:26:46.714Z,101158.50
2023-02-11T14:31:13.387Z,101166.22
2023-02-11T14:35:41.406Z,101149.44
2023-02-11T14:40:01.644Z,101143.78
2023-02-11T14:44:28.443Z,101143.31
2023-02-11T14:48:47.986Z,101131.59
2023-02-11T14:53:06.465Z,101123.53
2023-02-11T14:57:22.740Z,101098.22
2023-02-11T15:01:42.383Z,101115.03
2023-02-11T15:06:19.352Z,101118.06
2023-02-11T15:10:43.203Z,101117.59
2023-02-11T15:15:00.720Z,101108.56
2023-02-11T15:19:41.274Z,101110.94
2023-02-11T15:24:20.135Z,101106.81
2023-02-11T15:28:36.870Z,101084.47
2023-02-11T15:33:05.724Z,101086.91
2023-02-11T15:37:32.483Z,101086.19
2023-02-11T15:41:48.785Z,101081.66
2023-02-11T15:46:05.111Z,101085.88
2023-02-11T15:50:30.481Z,101071.06
2023-02-11T15:54:48.211Z,101066.03
2023-02-11T15:59:35.548Z,101061.28
2023-02-11T16:03:51.959Z,101057.09
2023-02-11T16:08:22.045Z,101036.72
2023-02-11T16:12:38.262Z,101041.06
2023-02-11T16:17:04.648Z,101040.44
2023-02-11T16:21:22.365Z,101043.78
2023-02-11T16:25:38.665Z,101044.38
2023-02-11T16:29:55.046Z,101052.06
2023-02-11T16:34:25.308Z,101059.38
2023-02-11T16:38:41.580Z,101044.19
2023-02-11T16:42:57.723Z,101045.44
2023-02-11T16:47:25.798Z,101055.19
2023-02-11T16:51:42.591Z,101055.16
2023-02-11T16:55:58.754Z,101044.44
2023-02-11T17:00:17.491Z,101049.16
2023-02-11T17:04:34.564Z,101044.34
2023-02-11T17:08:50.812Z,101059.69
2023-02-11T17:13:07.275Z,101064.59
2023-02-11T17:17:24.091Z,101069.88
2023-02-11T17:21:42.965Z,101070.94
2023-02-11T17:25:59.191Z,101063.19
2023-02-11T17:30:15.775Z,101066.06
2023-02-11T17:34:32.601Z,101060.00
2023-02-11T17:38:48.801Z,101066.16
2023-02-11T17:43:05.253Z,101072.78
2023-02-11T17:47:21.420Z,101069.00
2023-02-11T17:51:39.241Z,101053.69
2023-02-11T17:55:56.468Z,101052.75
2023-02-11T18:00:14.191Z,101059.63
2023-02-11T18:04:31.010Z,101050.13
2023-02-11T18:08:47.763Z,101038.03
2023-02-11T18:13:03.984Z,101039.19
2023-02-11T18:17:21.393Z,101038.31
2023-02-11T18:21:38.444Z,101036.41
2023-02-11T18:25:54.660Z,101037.03
2023-02-11T18:30:17.560Z,101036.06
2023-02-11T18:34:33.882Z,101022.84
2023-02-11T18:38:50.390Z,101028.47
2023-02-11T18:43:06.785Z,101016.94
2023-02-11T18:47:23.169Z,101020.22
2023-02-11T18:51:40.099Z,101033.28
2023-02-11T18:55:56.260Z,101030.81
2023-02-11T19:00:13.160Z,101025.41
2023-02-11T19:04:29.538Z,101026.06
2023-02-11T19:08:46.065Z,101024.91
2023-02-11T19:13:02.296Z,101045.03
2023-02-11T19:17:18.551Z,101048.78
2023-02-11T19:21:35.683Z,101050.44
2023-02-11T19:25:52.181Z,101049.59
2023-02-11T19:30:09.883Z,101056.28
2023-02-11T19:34:26.359Z,101067.94
2023-02-11T19:38:43.548Z,101073.75
2023-02-11T19:42:59.807Z,101075.41
2023-02-11T19:47:16.279Z,101077.94
2023-02-11T19:51:33.971Z,101064.13
2023-02-11T19:55:50.590Z,101075.19
2023-02-11T20:00:08.069Z,101072.44
2023-02-11T20:04:25.386Z,101078.25
2023-02-11T20:08:41.795Z,101070.91
2023-02-11T20:12:58.162Z,101074.75
2023-02-11T20:17:14.380Z,101077.44
2023-02-11T20:21:32.337Z,101069.94
2023-02-11T20:25:48.534Z,101074.13
2023-02-11T20:30:05.404Z,101073.25
2023-02-11T20:34:22.454Z,101062.88
2023-02-11T20:38:38.950Z,101067.31
2023-02-11T20:42:56.884Z,101065.19
2023-02-11T20:47:13.708Z,101069.94
2023-02-11T20:51:34.284Z,101063.66
2023-02-11T20:55:50.738Z,101073.66
2023-02-11T21:00:07.944Z,101072.47
2023-02-11T21:04:27.230Z,101077.63
2023-02-11T21:08:44.860Z,101075.34
2023-02-11T21:13:03.119Z,101084.37
2023-02-11T21:17:20.481Z,101081.66
2023-02-11T21:21:38.976Z,101076.34
2023-02-11T21:25:55.946Z,101083.03
2023-02-11T21:30:15.780Z,101081.19
2023-02-11T21:34:32.002Z,101085.66
2023-02-11T21:38:50.017Z,101086.56
2023-02-11T21:43:06.361Z,101079.03
2023-02-11T21:47:22.598Z,101081.84
2023-02-11T21:51:39.553Z,101081.75
2023-02-11T21:56:04.307Z,101078.28
2023-02-11T22:00:20.758Z,101089.09
2023-02-11T22:04:37.249Z,101089.88
2023-02-11T22:08:54.990Z,101103.09
2023-02-11T22:13:11.267Z,101098.75
2023-02-11T22:17:28.236Z,101096.88
2023-02-11T22:21:44.538Z,101101.28
2023-02-11T22:26:05.658Z,101123.12
2023-02-11T22:30:21.956Z,101123.22
2023-02-11T22:34:38.279Z,101115.59
2023-02-11T22:38:55.112Z,101121.06
2023-02-11T22:43:11.626Z,101114.69
2023-02-11T22:47:28.526Z,101107.47
2023-02-11T22:51:44.944Z,101107.09
2023-02-11T22:56:05.975Z,101085.41
2023-02-11T23:00:24.473Z,101071.47
2023-02-11T23:04:40.666Z,101068.34
2023-02-11T23:08:57.046Z,101063.53
2023-02-11T23:13:13.338Z,101070.03
2023-02-11T23:17:30.662Z,101070.19
2023-02-11T23:21:50.454Z,101078.28
2023-02-11T23:26:09.518Z,101068.56
2023-02-11T23:30:25.949Z,101071.03
2023-02-11T23:34:42.136Z,101059.81
2023-02-11T23:38:58.676Z,101049.59
2023-02-11T23:43:14.897Z,101052.53
2023-02-11T23:47:31.120Z,101051.25
2023-02-11T23:51:47.476Z,101058.31
2023-02-11T23:56:08.005Z,101069.97
